createdAt,value
2022-07-29T00:00:15.391Z,98950.06
2022-07-29T00:01:19.189Z,98950.22
2022-07-29T00:02:21.483Z,98945.91
2022-07-29T00:03:23.338Z,98946.44
2022-07-29T00:04:25.158Z,98949.69
2022-07-29T00:05:27.093Z,98938.72
2022-07-29T00:06:28.898Z,98937.63
2022-07-29T00:07:30.756Z,98942.19
2022-07-29T00:08:32.451Z,98942.25
2022-07-29T00:09:51.047Z,98941.16
2022-07-29T00:10:54.054Z,98944.66
2022-07-29T00:11:59.657Z,98950.59
2022-07-29T00:13:01.826Z,98939.56
2022-07-29T00:14:03.707Z,98944.84
2022-07-29T00:15:06.091Z,98946.72
2022-07-29T00:16:07.839Z,98941.69
2022-07-29T00:17:09.683Z,98949.19
2022-07-29T00:18:11.415Z,98947.06
2022-07-29T00:19:13.130Z,98934.22
2022-07-29T00:20:15.083Z,98942.78
2022-07-29T00:21:16.899Z,98926.09
2022-07-29T00:22:18.722Z,98941.28
2022-07-29T00:23:20.448Z,98935.88
2022-07-29T00:24:22.311Z,98938.06
2022-07-29T00:25:24.120Z,98940.25
2022-07-29T00:26:26.343Z,98937.09
2022-07-29T00:27:28.343Z,98939.50
2022-07-29T00:28:30.071Z,98943.59
2022-07-29T00:29:34.029Z,98940.34
2022-07-29T00:30:36.505Z,98940.88
2022-07-29T00:31:38.318Z,98945.19
2022-07-29T00:32:40.408Z,98917.03
2022-07-29T00:33:42.383Z,98939.25
2022-07-29T00:35:02.596Z,98938.81
2022-07-29T00:36:04.623Z,98934.28
2022-07-29T00:37:06.400Z,98941.75
2022-07-29T00:38:09.739Z,98936.03
2022-07-29T00:39:11.482Z,98934.66
2022-07-29T00:40:13.494Z,98918.31
2022-07-29T00:41:15.354Z,98925.84
2022-07-29T00:42:17.764Z,98937.09
2022-07-29T00:43:19.482Z,98924.91
2022-07-29T00:44:21.339Z,98933.16
2022-07-29T00:45:23.350Z,98937.19
2022-07-29T00:46:25.145Z,98927.53
2022-07-29T00:47:26.922Z,98945.19
2022-07-29T00:48:28.615Z,98938.03
2022-07-29T00:49:30.391Z,98939.34
2022-07-29T00:50:33.419Z,98950.06
2022-07-29T00:51:39.432Z,98927.00
2022-07-29T00:52:42.631Z,98942.13
2022-07-29T00:53:45.169Z,98937.03
2022-07-29T00:54:47.025Z,98937.28
2022-07-29T00:55:48.867Z,98933.78
2022-07-29T00:56:50.955Z,98895.78
2022-07-29T00:57:53.778Z,98941.88
2022-07-29T00:58:57.617Z,98940.03
2022-07-29T00:59:59.443Z,98928.47
2022-07-29T01:01:01.254Z,98945.31
2022-07-29T01:02:04.552Z,98934.56
2022-07-29T01:03:06.340Z,98937.19
2022-07-29T01:04:08.219Z,98944.41
2022-07-29T01:05:12.150Z,98925.34
2022-07-29T01:06:14.249Z,98934.97
2022-07-29T01:07:17.564Z,98919.97
2022-07-29T01:08:21.337Z,98936.00
2022-07-29T01:09:43.106Z,98937.34
2022-07-29T01:10:47.238Z,98935.25
2022-07-29T01:11:49.574Z,98939.34
2022-07-29T01:12:53.553Z,98936.91
2022-07-29T01:13:55.549Z,98934.97
2022-07-29T01:14:57.643Z,98936.81
2022-07-29T01:16:07.833Z,98941.94
2022-07-29T01:17:19.065Z,98943.81
2022-07-29T01:18:33.016Z,98943.22
2022-07-29T01:19:59.228Z,98939.69
2022-07-29T01:21:10.128Z,98938.06
2022-07-29T01:22:17.677Z,98941.28
2022-07-29T01:23:37.603Z,98937.53
2022-07-29T01:24:51.040Z,98942.47
2022-07-29T01:25:58.495Z,98943.19
2022-07-29T01:27:33.755Z,98930.34
2022-07-29T01:28:41.613Z,98944.03
2022-07-29T01:29:50.141Z,98949.09
2022-07-29T01:30:53.644Z,98945.06
2022-07-29T01:32:00.845Z,98938.91
2022-07-29T01:33:11.570Z,98944.75
2022-07-29T01:34:21.861Z,98941.50
2022-07-29T01:35:34.309Z,98953.88
2022-07-29T01:36:48.188Z,98944.22
2022-07-29T01:38:05.578Z,98951.22
2022-07-29T01:39:38.538Z,98946.09
2022-07-29T01:40:43.115Z,98938.81
2022-07-29T01:41:58.302Z,98945.84
2022-07-29T01:43:06.582Z,98939.16
2022-07-29T01:44:21.307Z,98948.00
2022-07-29T01:45:44.403Z,98939.44
2022-07-29T01:46:53.626Z,98950.19
2022-07-29T01:48:01.485Z,98942.13
2022-07-29T01:49:11.345Z,98938.34
2022-07-29T01:50:17.878Z,98928.69
2022-07-29T01:51:32.681Z,98934.06
2022-07-29T01:52:53.924Z,98940.50
2022-07-29T01:54:03.958Z,98938.03
2022-07-29T01:55:16.201Z,98942.59
2022-07-29T01:56:21.007Z,98930.75
2022-07-29T01:57:29.120Z,98934.50
2022-07-29T01:58:33.123Z,98941.97
2022-07-29T01:59:37.280Z,98935.59
2022-07-29T02:00:43.698Z,98930.41
2022-07-29T02:01:48.064Z,98925.84
2022-07-29T02:02:51.163Z,98918.66
2022-07-29T02:03:55.437Z,98934.44
2022-07-29T02:05:00.244Z,98939.53
2022-07-29T02:06:04.390Z,98938.97
2022-07-29T02:07:09.526Z,98941.69
2022-07-29T02:08:13.037Z,98941.69
2022-07-29T02:09:16.916Z,98933.63
2022-07-29T02:10:25.876Z,98936.81
2022-07-29T02:11:28.414Z,98932.28
2022-07-29T02:12:32.117Z,98936.28
2022-07-29T02:13:36.998Z,98934.16
2022-07-29T02:14:44.872Z,98925.34
2022-07-29T02:15:47.468Z,98931.22
2022-07-29T02:16:53.089Z,98935.03
2022-07-29T02:18:02.181Z,98931.81
2022-07-29T02:19:05.281Z,98925.84
2022-07-29T02:20:09.077Z,98930.66
2022-07-29T02:21:15.007Z,98933.09
2022-07-29T02:22:19.609Z,98934.16
2022-07-29T02:23:23.891Z,98933.34
2022-07-29T02:24:27.037Z,98926.38
2022-07-29T02:25:36.749Z,98921.53
2022-07-29T02:26:43.365Z,98919.91
2022-07-29T02:27:46.584Z,98926.91
2022-07-29T02:28:51.226Z,98922.31
2022-07-29T02:29:54.567Z,98917.22
2022-07-29T02:31:00.651Z,98918.31
2022-07-29T02:32:04.846Z,98916.13
2022-07-29T02:33:07.680Z,98915.88
2022-07-29T02:34:11.868Z,98911.31
2022-07-29T02:35:16.126Z,98912.38
2022-07-29T02:36:18.823Z,98913.97
2022-07-29T02:37:21.517Z,98900.34
2022-07-29T02:38:43.849Z,98913.16
2022-07-29T02:39:48.056Z,98912.09
2022-07-29T02:40:51.792Z,98911.00
2022-07-29T02:42:00.145Z,98913.41
2022-07-29T02:43:05.602Z,98910.72
2022-07-29T02:44:17.583Z,98911.53
2022-07-29T02:45:19.637Z,98908.56
2022-07-29T02:46:30.403Z,98909.41
2022-07-29T02:47:43.747Z,98900.00
2022-07-29T02:48:52.970Z,98913.41
2022-07-29T02:50:09.936Z,98913.94
2022-07-29T02:51:44.251Z,98908.34
2022-07-29T02:52:51.707Z,98918.78
2022-07-29T02:53:58.136Z,98903.25
2022-07-29T02:55:06.517Z,98915.03
2022-07-29T02:56:14.153Z,98917.72
2022-07-29T02:57:23.174Z,98916.63
2022-07-29T02:58:35.515Z,98921.69
2022-07-29T02:59:39.368Z,98915.03
2022-07-29T03:00:42.030Z,98915.81
2022-07-29T03:01:45.342Z,98920.41
2022-07-29T03:02:53.402Z,98904.84
2022-07-29T03:03:56.205Z,98919.59
2022-07-29T03:04:59.202Z,98914.22
2022-07-29T03:06:04.328Z,98915.31
2022-07-29T03:07:06.571Z,98900.09
2022-07-29T03:08:10.890Z,98925.28
2022-07-29T03:09:14.408Z,98921.53
2022-07-29T03:10:16.666Z,98912.91
2022-07-29T03:11:19.342Z,98925.03
2022-07-29T03:12:21.872Z,98922.13
2022-07-29T03:13:24.727Z,98922.22
2022-07-29T03:14:27.605Z,98920.94
2022-07-29T03:15:30.373Z,98922.59
2022-07-29T03:16:34.300Z,98924.19
2022-07-29T03:17:38.922Z,98930.13
2022-07-29T03:18:40.890Z,98917.81
2022-07-29T03:19:43.373Z,98921.78
2022-07-29T03:20:45.208Z,98922.81
2022-07-29T03:21:47.277Z,98932.19
2022-07-29T03:22:49.285Z,98929.00
2022-07-29T03:23:51.002Z,98927.13
2022-07-29T03:24:52.721Z,98935.69
2022-07-29T03:25:55.341Z,98930.84
2022-07-29T03:26:59.466Z,98934.59
2022-07-29T03:28:02.738Z,98935.66
2022-07-29T03:29:04.446Z,98930.84
2022-07-29T03:30:08.316Z,98926.00
2022-07-29T03:31:13.113Z,98939.34
2022-07-29T03:32:14.874Z,98939.28
2022-07-29T03:33:25.660Z,98944.13
2022-07-29T03:34:27.382Z,98940.34
2022-07-29T03:35:29.453Z,98939.00
2022-07-29T03:36:31.188Z,98942.75
2022-07-29T03:37:34.504Z,98921.06
2022-07-29T03:38:37.929Z,98939.97
2022-07-29T03:39:42.522Z,98925.78
2022-07-29T03:40:50.855Z,98950.44
2022-07-29T03:41:56.235Z,98938.63
2022-07-29T03:43:00.312Z,98925.78
2022-07-29T03:44:03.174Z,98947.31
2022-07-29T03:45:08.980Z,98948.31
2022-07-29T03:46:12.515Z,98954.47
2022-07-29T03:47:16.138Z,98938.63
2022-07-29T03:48:21.970Z,98954.63
2022-07-29T03:49:25.032Z,98952.13
2022-07-29T03:50:27.090Z,98949.38
2022-07-29T03:51:33.978Z,98950.66
2022-07-29T03:52:36.804Z,98951.97
2022-07-29T03:53:39.072Z,98944.63
2022-07-29T03:54:41.526Z,98946.97
2022-07-29T03:55:52.191Z,98947.19
2022-07-29T03:56:55.308Z,98939.75
2022-07-29T03:57:58.333Z,98953.06
2022-07-29T03:59:02.568Z,98952.97
2022-07-29T04:00:06.458Z,98936.91
2022-07-29T04:01:08.552Z,98940.31
2022-07-29T04:02:12.573Z,98950.41
2022-07-29T04:03:15.321Z,98955.72
2022-07-29T04:04:18.110Z,98949.19
2022-07-29T04:05:20.564Z,98956.63
2022-07-29T04:06:22.354Z,98958.13
2022-07-29T04:07:24.079Z,98958.84
2022-07-29T04:08:25.771Z,98961.63
2022-07-29T04:09:27.568Z,98963.41
2022-07-29T04:10:31.658Z,98956.53
2022-07-29T04:11:34.275Z,98949.78
2022-07-29T04:12:56.010Z,98962.72
2022-07-29T04:13:57.709Z,98966.09
2022-07-29T04:14:59.395Z,98955.78
2022-07-29T04:16:01.345Z,98963.16
2022-07-29T04:17:04.810Z,98955.25
2022-07-29T04:18:07.134Z,98960.63
2022-07-29T04:19:08.852Z,98968.53
2022-07-29T04:20:14.226Z,98958.84
2022-07-29T04:21:15.966Z,98948.44
2022-07-29T04:22:17.706Z,98968.88
2022-07-29T04:23:19.593Z,98974.63
2022-07-29T04:24:21.459Z,98970.63
2022-07-29T04:25:23.299Z,98956.00
2022-07-29T04:26:25.012Z,98973.91
2022-07-29T04:27:26.967Z,98966.00
2022-07-29T04:28:28.758Z,98975.38
2022-07-29T04:29:30.525Z,98972.50
2022-07-29T04:30:33.596Z,98967.47
2022-07-29T04:31:35.407Z,98967.72
2022-07-29T04:32:37.185Z,98971.50
2022-07-29T04:33:39.051Z,98968.25
2022-07-29T04:34:40.793Z,98968.00
2022-07-29T04:35:50.058Z,98959.34
2022-07-29T04:36:52.426Z,98964.06
2022-07-29T04:37:54.242Z,98948.03
2022-07-29T04:38:55.987Z,98962.44
2022-07-29T04:39:57.690Z,98958.03
2022-07-29T04:40:59.434Z,98963.38
2022-07-29T04:42:01.140Z,98962.47
2022-07-29T04:43:05.689Z,98956.78
2022-07-29T04:44:08.821Z,98945.28
2022-07-29T04:45:10.693Z,98969.75
2022-07-29T04:46:12.573Z,98966.94
2022-07-29T04:47:14.314Z,98966.31
2022-07-29T04:48:16.010Z,98968.88
2022-07-29T04:49:17.770Z,98970.66
2022-07-29T04:50:19.593Z,98972.72
2022-07-29T04:51:21.276Z,98977.38
2022-07-29T04:52:23.730Z,98972.09
2022-07-29T04:53:25.715Z,98983.91
2022-07-29T04:54:27.406Z,98980.03
2022-07-29T04:55:29.293Z,98981.28
2022-07-29T04:56:31.071Z,98975.53
2022-07-29T04:57:33.152Z,98979.31
2022-07-29T04:58:37.830Z,98978.16
2022-07-29T04:59:39.514Z,98980.03
2022-07-29T05:00:41.590Z,98975.84
2022-07-29T05:01:43.501Z,98980.72
2022-07-29T05:02:45.409Z,98977.75
2022-07-29T05:03:47.256Z,98974.06
2022-07-29T05:04:49.466Z,98985.16
2022-07-29T05:05:51.189Z,98990.34
2022-07-29T05:06:52.904Z,98978.91
2022-07-29T05:07:54.680Z,98989.75
2022-07-29T05:08:56.509Z,98969.16
2022-07-29T05:09:58.206Z,98975.47
2022-07-29T05:11:11.240Z,98988.25
2022-07-29T05:12:13.593Z,98996.53
2022-07-29T05:13:15.304Z,98994.53
2022-07-29T05:14:17.444Z,98995.72
2022-07-29T05:15:19.477Z,98990.31
2022-07-29T05:16:21.251Z,98996.16
2022-07-29T05:17:23.103Z,98994.47
2022-07-29T05:18:26.251Z,98990.53
2022-07-29T05:19:28.144Z,98986.22
2022-07-29T05:20:30.642Z,98988.06
2022-07-29T05:21:32.402Z,98987.94
2022-07-29T05:22:34.159Z,98987.97
2022-07-29T05:23:36.038Z,98990.16
2022-07-29T05:24:38.407Z,98991.75
2022-07-29T05:25:43.433Z,98982.97
2022-07-29T05:26:46.620Z,98993.09
2022-07-29T05:27:48.738Z,98984.00
2022-07-29T05:28:52.967Z,98988.06
2022-07-29T05:29:54.757Z,98988.53
2022-07-29T05:30:57.410Z,98992.81
2022-07-29T05:31:59.556Z,98993.03
2022-07-29T05:33:02.125Z,98982.09
2022-07-29T05:34:03.877Z,98994.16
2022-07-29T05:35:06.065Z,98992.88
2022-07-29T05:36:08.654Z,98995.25
2022-07-29T05:37:10.440Z,98986.34
2022-07-29T05:38:12.238Z,99001.16
2022-07-29T05:39:14.243Z,98994.00
2022-07-29T05:40:15.940Z,98997.84
2022-07-29T05:41:17.680Z,98996.47
2022-07-29T05:42:19.409Z,98996.09
2022-07-29T05:43:22.073Z,98996.78
2022-07-29T05:44:25.427Z,98997.28
2022-07-29T05:45:27.379Z,99001.22
2022-07-29T05:46:29.397Z,98998.44
2022-07-29T05:47:31.576Z,99003.25
2022-07-29T05:48:33.489Z,99003.22
2022-07-29T05:49:35.289Z,99002.97
2022-07-29T05:50:37.050Z,98996.38
2022-07-29T05:51:46.086Z,98995.56
2022-07-29T05:52:47.820Z,99003.56
2022-07-29T05:53:51.631Z,98990.25
2022-07-29T05:54:53.427Z,99001.56
2022-07-29T05:55:55.791Z,98999.97
2022-07-29T05:56:57.545Z,98993.81
2022-07-29T05:57:59.256Z,99006.56
2022-07-29T05:59:00.970Z,99008.78
2022-07-29T06:00:03.167Z,99014.88
2022-07-29T06:01:04.965Z,99014.06
2022-07-29T06:02:06.739Z,99011.66
2022-07-29T06:03:08.655Z,99002.34
2022-07-29T06:04:10.448Z,99016.28
2022-07-29T06:05:17.041Z,99009.56
2022-07-29T06:06:19.102Z,99007.28
2022-07-29T06:07:21.135Z,99017.13
2022-07-29T06:08:22.869Z,99019.47
2022-07-29T06:09:24.717Z,99018.22
2022-07-29T06:10:26.989Z,99015.59
2022-07-29T06:11:29.368Z,99021.56
2022-07-29T06:12:31.074Z,99006.66
2022-07-29T06:13:32.940Z,99018.78
2022-07-29T06:14:34.743Z,99019.41
2022-07-29T06:15:36.596Z,99015.13
2022-07-29T06:16:38.372Z,99013.81
2022-07-29T06:17:40.095Z,99011.81
2022-07-29T06:19:01.790Z,99016.88
2022-07-29T06:20:04.416Z,99010.59
2022-07-29T06:21:10.845Z,99008.25
2022-07-29T06:22:12.545Z,99011.47
2022-07-29T06:23:14.278Z,99010.47
2022-07-29T06:24:16.942Z,99014.56
2022-07-29T06:25:19.305Z,99013.41
2022-07-29T06:26:30.399Z,99004.31
2022-07-29T06:27:33.267Z,99010.59
2022-07-29T06:28:37.517Z,98997.34
2022-07-29T06:29:39.526Z,99002.78
2022-07-29T06:30:41.536Z,99006.69
2022-07-29T06:31:43.326Z,99006.38
2022-07-29T06:32:45.054Z,99008.56
2022-07-29T06:33:46.750Z,98998.56
2022-07-29T06:34:49.044Z,99006.44
2022-07-29T06:35:53.106Z,99015.63
2022-07-29T06:36:55.560Z,99013.03
2022-07-29T06:37:59.715Z,99007.88
2022-07-29T06:39:02.851Z,99010.88
2022-07-29T06:40:24.747Z,99001.66
2022-07-29T06:41:27.150Z,99010.44
2022-07-29T06:42:28.848Z,99005.50
2022-07-29T06:43:52.236Z,98995.75
2022-07-29T06:44:56.441Z,99008.47
2022-07-29T06:46:03.107Z,99000.41
2022-07-29T06:47:04.843Z,99003.25
2022-07-29T06:48:06.777Z,99007.41
2022-07-29T06:49:08.833Z,98997.53
2022-07-29T06:50:13.447Z,99001.81
2022-07-29T06:51:15.643Z,98992.94
2022-07-29T06:52:18.033Z,98998.13
2022-07-29T06:53:19.725Z,98995.47
2022-07-29T06:54:22.867Z,99006.34
2022-07-29T06:55:24.948Z,98999.28
2022-07-29T06:56:27.457Z,98999.19
2022-07-29T06:57:29.173Z,99001.56
2022-07-29T06:58:31.429Z,99001.25
2022-07-29T06:59:35.730Z,98996.00
2022-07-29T07:00:38.362Z,98990.56
2022-07-29T07:01:42.465Z,98989.09
2022-07-29T07:02:44.276Z,98990.78
2022-07-29T07:03:46.085Z,98988.91
2022-07-29T07:04:50.681Z,98995.06
2022-07-29T07:05:54.798Z,98994.81
2022-07-29T07:06:56.961Z,98997.69
2022-07-29T07:07:58.780Z,98996.91
2022-07-29T07:09:00.699Z,98995.75
2022-07-29T07:10:02.436Z,98998.56
2022-07-29T07:11:05.143Z,98996.47
2022-07-29T07:12:07.187Z,98980.97
2022-07-29T07:13:08.966Z,98993.72
2022-07-29T07:14:10.678Z,98991.81
2022-07-29T07:15:12.379Z,98993.00
2022-07-29T07:16:14.211Z,98994.25
2022-07-29T07:17:16.001Z,98991.56
2022-07-29T07:18:18.062Z,98987.94
2022-07-29T07:19:20.338Z,98994.97
2022-07-29T07:20:22.825Z,98997.28
2022-07-29T07:21:30.183Z,98991.25
2022-07-29T07:22:38.425Z,98985.41
2022-07-29T07:23:40.590Z,98984.28
2022-07-29T07:24:42.299Z,98993.31
2022-07-29T07:25:44.444Z,98974.06
2022-07-29T07:26:46.297Z,98988.25
2022-07-29T07:27:48.101Z,98987.88
2022-07-29T07:28:49.791Z,98985.50
2022-07-29T07:29:51.474Z,98990.06
2022-07-29T07:30:53.243Z,98983.75
2022-07-29T07:32:00.645Z,98988.50
2022-07-29T07:33:03.543Z,98995.44
2022-07-29T07:34:05.703Z,98989.09
2022-07-29T07:35:09.515Z,98987.13
2022-07-29T07:36:11.311Z,98981.97
2022-07-29T07:37:13.107Z,98984.69
2022-07-29T07:38:14.943Z,98991.00
2022-07-29T07:39:16.666Z,98986.50
2022-07-29T07:40:18.655Z,98990.06
2022-07-29T07:41:21.103Z,98987.25
2022-07-29T07:42:22.903Z,98980.34
2022-07-29T07:43:24.605Z,98980.78
2022-07-29T07:44:26.637Z,98978.59
2022-07-29T07:45:29.081Z,98979.56
2022-07-29T07:46:30.823Z,98977.00
2022-07-29T07:47:33.011Z,98969.09
2022-07-29T07:48:36.015Z,98978.03
2022-07-29T07:49:37.708Z,98976.06
2022-07-29T07:50:39.578Z,98977.13
2022-07-29T07:51:41.499Z,98977.84
2022-07-29T07:52:54.799Z,98975.63
2022-07-29T07:53:56.485Z,98974.19
2022-07-29T07:54:59.626Z,98973.84
2022-07-29T07:56:16.989Z,98982.56
2022-07-29T07:57:18.798Z,98975.84
2022-07-29T07:58:20.579Z,98971.69
2022-07-29T07:59:22.295Z,98974.91
2022-07-29T08:00:24.375Z,98976.25
2022-07-29T08:01:26.116Z,98983.47
2022-07-29T08:02:28.070Z,98964.44
2022-07-29T08:03:29.915Z,98975.97
2022-07-29T08:04:31.651Z,98977.22
2022-07-29T08:05:33.552Z,98977.22
2022-07-29T08:06:37.064Z,98976.03
2022-07-29T08:07:38.779Z,98975.22
2022-07-29T08:08:40.530Z,98981.66
2022-07-29T08:09:42.265Z,98976.03
2022-07-29T08:11:02.174Z,98977.63
2022-07-29T08:12:07.442Z,98974.09
2022-07-29T08:13:10.350Z,98976.22
2022-07-29T08:14:12.135Z,98970.78
2022-07-29T08:15:15.519Z,98974.72
2022-07-29T08:16:17.313Z,98976.34
2022-07-29T08:17:19.143Z,98958.81
2022-07-29T08:18:20.841Z,98969.47
2022-07-29T08:19:22.560Z,98965.38
2022-07-29T08:20:26.123Z,98967.09
2022-07-29T08:21:27.867Z,98971.34
2022-07-29T08:22:29.594Z,98973.47
2022-07-29T08:23:46.144Z,98980.25
2022-07-29T08:24:54.839Z,98954.47
2022-07-29T08:25:57.457Z,98967.59
2022-07-29T08:26:59.384Z,98960.28
2022-07-29T08:28:01.073Z,98959.59
2022-07-29T08:29:02.789Z,98967.09
2022-07-29T08:30:04.980Z,98968.22
2022-07-29T08:31:07.123Z,98965.75
2022-07-29T08:32:08.870Z,98970.47
2022-07-29T08:33:10.681Z,98973.28
2022-07-29T08:34:13.110Z,98965.94
2022-07-29T08:35:14.837Z,98969.03
2022-07-29T08:36:16.545Z,98963.47
2022-07-29T08:37:18.272Z,98964.47
2022-07-29T08:38:19.981Z,98971.09
2022-07-29T08:39:21.751Z,98964.16
2022-07-29T08:40:31.988Z,98958.78
2022-07-29T08:41:34.611Z,98962.84
2022-07-29T08:42:37.000Z,98948.75
2022-07-29T08:43:42.034Z,98938.78
2022-07-29T08:44:43.905Z,98953.31
2022-07-29T08:45:48.740Z,98956.03
2022-07-29T08:46:51.277Z,98943.63
2022-07-29T08:47:53.689Z,98948.59
2022-07-29T08:48:56.632Z,98943.53
2022-07-29T08:49:58.600Z,98946.88
2022-07-29T08:51:01.630Z,98938.03
2022-07-29T08:52:04.322Z,98947.81
2022-07-29T08:53:08.741Z,98937.97
2022-07-29T08:54:11.413Z,98933.53
2022-07-29T08:55:16.507Z,98942.50
2022-07-29T08:56:23.489Z,98936.97
2022-07-29T08:57:26.317Z,98934.06
2022-07-29T08:58:33.229Z,98932.53
2022-07-29T08:59:41.348Z,98934.72
2022-07-29T09:00:52.218Z,98927.59
2022-07-29T09:01:55.635Z,98932.25
2022-07-29T09:03:00.461Z,98934.34
2022-07-29T09:04:05.586Z,98935.28
2022-07-29T09:05:07.945Z,98930.31
2022-07-29T09:06:13.985Z,98928.91
2022-07-29T09:07:17.521Z,98919.88
2022-07-29T09:08:19.613Z,98926.50
2022-07-29T09:09:21.395Z,98934.03
2022-07-29T09:10:23.521Z,98935.59
2022-07-29T09:11:25.690Z,98931.09
2022-07-29T09:12:29.289Z,98926.75
2022-07-29T09:13:32.194Z,98916.09
2022-07-29T09:14:33.898Z,98928.06
2022-07-29T09:15:35.789Z,98926.09
2022-07-29T09:16:55.392Z,98910.16
2022-07-29T09:17:59.506Z,98923.41
2022-07-29T09:19:01.197Z,98922.41
2022-07-29T09:20:14.483Z,98924.19
2022-07-29T09:21:36.700Z,98924.19
2022-07-29T09:22:42.195Z,98919.66
2022-07-29T09:24:11.942Z,98928.31
2022-07-29T09:25:13.925Z,98918.75
2022-07-29T09:26:15.618Z,98912.94
2022-07-29T09:27:27.159Z,98917.34
2022-07-29T09:28:28.832Z,98915.22
2022-07-29T09:29:35.756Z,98910.59
2022-07-29T09:30:55.062Z,98913.09
2022-07-29T09:31:56.880Z,98913.50
2022-07-29T09:33:02.317Z,98907.56
2022-07-29T09:34:05.396Z,98909.47
2022-07-29T09:35:17.371Z,98905.84
2022-07-29T09:36:19.111Z,98912.19
2022-07-29T09:37:29.632Z,98901.06
2022-07-29T09:38:32.197Z,98907.47
2022-07-29T09:39:47.333Z,98904.28
2022-07-29T09:41:04.608Z,98905.13
2022-07-29T09:42:07.970Z,98911.50
2022-07-29T09:43:14.430Z,98911.97
2022-07-29T09:44:17.254Z,98909.25
2022-07-29T09:45:33.286Z,98903.81
2022-07-29T09:46:35.709Z,98906.56
2022-07-29T09:47:50.345Z,98908.56
2022-07-29T09:49:12.114Z,98904.59
2022-07-29T09:50:14.293Z,98889.59
2022-07-29T09:51:28.323Z,98890.34
2022-07-29T09:52:47.845Z,98900.56
2022-07-29T09:53:49.575Z,98902.53
2022-07-29T09:54:51.452Z,98896.66
2022-07-29T09:55:53.517Z,98887.97
2022-07-29T09:56:56.542Z,98899.09
2022-07-29T09:58:18.914Z,98892.75
2022-07-29T09:59:23.392Z,98889.91
2022-07-29T10:00:26.491Z,98896.69
2022-07-29T10:01:29.915Z,98897.88
2022-07-29T10:02:32.965Z,98887.97
2022-07-29T10:03:52.206Z,98880.88
2022-07-29T10:04:54.042Z,98879.22
2022-07-29T10:06:14.564Z,98887.91
2022-07-29T10:07:16.331Z,98885.53
2022-07-29T10:08:26.879Z,98887.59
2022-07-29T10:09:28.802Z,98891.16
2022-07-29T10:10:34.891Z,98886.84
2022-07-29T10:11:48.929Z,98876.59
2022-07-29T10:13:07.098Z,98888.81
2022-07-29T10:14:09.833Z,98877.78
2022-07-29T10:15:11.610Z,98879.34
2022-07-29T10:16:15.154Z,98880.16
2022-07-29T10:17:18.066Z,98883.25
2022-07-29T10:18:21.081Z,98879.72
2022-07-29T10:19:23.330Z,98891.13
2022-07-29T10:20:26.312Z,98886.44
2022-07-29T10:21:36.016Z,98877.75
2022-07-29T10:22:54.247Z,98889.63
2022-07-29T10:24:01.090Z,98888.38
2022-07-29T10:25:03.581Z,98883.19
2022-07-29T10:26:05.601Z,98883.94
2022-07-29T10:27:09.278Z,98885.47
2022-07-29T10:28:15.788Z,98893.38
2022-07-29T10:29:18.157Z,98884.66
2022-07-29T10:30:21.502Z,98881.50
2022-07-29T10:31:30.811Z,98881.50
2022-07-29T10:32:54.054Z,98884.78
2022-07-29T10:34:08.247Z,98875.75
2022-07-29T10:35:34.294Z,98875.38
2022-07-29T10:37:08.581Z,98875.41
2022-07-29T10:38:30.505Z,98865.97
2022-07-29T10:39:44.328Z,98873.78
2022-07-29T10:41:27.811Z,98880.09
2022-07-29T10:42:42.317Z,98870.28
2022-07-29T10:43:47.776Z,98865.13
2022-07-29T10:44:54.494Z,98862.72
2022-07-29T10:45:58.729Z,98866.59
2022-07-29T10:47:00.660Z,98870.91
2022-07-29T10:48:06.107Z,98856.22
2022-07-29T10:49:25.114Z,98851.47
2022-07-29T10:50:27.203Z,98850.50
2022-07-29T10:51:52.528Z,98848.59
2022-07-29T10:52:59.661Z,98847.03
2022-07-29T10:54:06.001Z,98849.81
2022-07-29T10:55:09.181Z,98845.56
2022-07-29T10:56:25.398Z,98832.31
2022-07-29T10:57:53.072Z,98850.34
2022-07-29T10:59:23.012Z,98842.88
2022-07-29T11:00:31.177Z,98841.00
2022-07-29T11:01:37.357Z,98819.72
2022-07-29T11:02:42.669Z,98835.91
2022-07-29T11:03:50.679Z,98843.38
2022-07-29T11:04:52.894Z,98843.78
2022-07-29T11:05:59.796Z,98840.69
2022-07-29T11:07:03.904Z,98839.47
2022-07-29T11:08:19.641Z,98832.78
2022-07-29T11:09:34.849Z,98832.44
2022-07-29T11:10:40.265Z,98828.88
2022-07-29T11:11:43.810Z,98834.00
2022-07-29T11:12:50.157Z,98825.75
2022-07-29T11:13:54.290Z,98821.78
2022-07-29T11:15:01.597Z,98826.13
2022-07-29T11:16:04.103Z,98807.22
2022-07-29T11:17:09.104Z,98808.78
2022-07-29T11:18:15.234Z,98828.09
2022-07-29T11:19:29.780Z,98826.56
2022-07-29T11:20:45.781Z,98831.25
2022-07-29T11:22:05.553Z,98828.09
2022-07-29T11:23:33.321Z,98823.75
2022-07-29T11:24:36.999Z,98822.59
2022-07-29T11:25:50.123Z,98822.56
2022-07-29T11:27:18.238Z,98833.22
2022-07-29T11:28:25.449Z,98814.63
2022-07-29T11:29:27.549Z,98816.59
2022-07-29T11:30:52.242Z,98815.50
2022-07-29T11:32:10.418Z,98817.41
2022-07-29T11:33:54.394Z,98808.81
2022-07-29T11:35:37.200Z,98804.47
2022-07-29T11:37:15.830Z,98798.09
2022-07-29T11:38:31.948Z,98796.56
2022-07-29T11:39:39.867Z,98791.84
2022-07-29T11:40:42.541Z,98797.75
2022-07-29T11:41:44.392Z,98796.53
2022-07-29T11:42:47.489Z,98798.09
2022-07-29T11:43:55.204Z,98799.69
2022-07-29T11:45:42.497Z,98795.38
2022-07-29T11:46:54.034Z,98797.34
2022-07-29T11:49:32.207Z,98797.38
2022-07-29T11:50:37.514Z,98789.50
2022-07-29T11:51:52.572Z,98792.63
2022-07-29T11:52:54.933Z,98787.94
2022-07-29T11:54:04.118Z,98785.13
2022-07-29T11:55:09.878Z,98793.44
2022-07-29T11:56:17.048Z,98787.75
2022-07-29T11:57:21.183Z,98780.22
2022-07-29T11:58:25.169Z,98775.50
2022-07-29T12:00:55.515Z,98782.44
2022-07-29T12:02:18.354Z,98768.66
2022-07-29T12:03:35.349Z,98788.72
2022-07-29T12:04:55.394Z,98774.88
2022-07-29T12:05:57.543Z,98779.31
2022-07-29T12:07:00.534Z,98775.91
2022-07-29T12:07:03.208Z,98780.16
2022-07-29T12:07:03.823Z,98799.72
2022-07-29T12:08:14.906Z,98777.50
2022-07-29T12:09:16.926Z,98781.44
2022-07-29T12:10:19.795Z,98780.69
2022-07-29T12:11:31.476Z,98779.81
2022-07-29T12:12:33.938Z,98782.16
2022-07-29T12:13:40.826Z,98768.78
2022-07-29T12:14:46.680Z,98774.25
2022-07-29T12:15:56.427Z,98765.31
2022-07-29T12:17:02.025Z,98776.00
2022-07-29T12:18:24.000Z,98776.03
2022-07-29T12:19:27.270Z,98777.19
2022-07-29T12:20:30.597Z,98773.25
2022-07-29T12:21:56.502Z,98768.06
2022-07-29T12:23:07.234Z,98756.84
2022-07-29T12:24:09.684Z,98774.94
2022-07-29T12:26:35.032Z,98768.28
2022-07-29T12:27:40.563Z,98771.03
2022-07-29T12:28:42.434Z,98767.13
2022-07-29T12:30:02.241Z,98765.13
2022-07-29T12:31:05.652Z,98765.00
2022-07-29T12:32:15.075Z,98761.41
2022-07-29T12:33:29.793Z,98769.94
2022-07-29T12:34:32.114Z,98761.19
2022-07-29T12:35:33.992Z,98775.78
2022-07-29T12:36:36.127Z,98752.88
2022-07-29T12:37:40.896Z,98759.94
2022-07-29T12:38:44.577Z,98759.25
2022-07-29T12:39:46.550Z,98756.41
2022-07-29T12:40:49.445Z,98759.56
2022-07-29T12:41:51.148Z,98757.31
2022-07-29T12:43:10.494Z,98762.06
2022-07-29T12:44:12.657Z,98751.81
2022-07-29T12:45:14.422Z,98749.41
2022-07-29T12:46:16.371Z,98756.03
2022-07-29T12:47:20.333Z,98758.28
2022-07-29T12:48:42.517Z,98745.78
2022-07-29T12:49:44.301Z,98739.56
2022-07-29T12:51:07.079Z,98739.78
2022-07-29T12:52:29.349Z,98748.84
2022-07-29T12:53:31.916Z,98730.13